Time;durP1;ratioP1;P1;durP2;ratioP2;P2;SDS_P1;SDS_P2;PMS_P1;PMS_P2;Temp;Humidity;BMP_temperature;BMP_pressure;BME280_temperature;BME280_humidity;BME280_pressure;Samples;Min_cycle;Max_cycle;Signal;HPM_P1;HPM_P2
2022/05/17 00:01:55;;;;;;;8.38;2.05;;;16.50;99.90;;;;;;5051713;28;20507;-59
2022/05/17 00:04:20;;;;;;;5.55;2.15;;;16.50;99.90;;;;;;5051908;28;20032;-58
2022/05/17 00:06:47;;;;;;;10.25;2.55;;;16.40;99.90;;;;;;5052171;28;20028;-59
2022/05/17 00:09:13;;;;;;;7.50;2.55;;;16.40;99.90;;;;;;5051963;28;20554;-58
2022/05/17 00:11:38;;;;;;;8.40;2.42;;;16.40;99.90;;;;;;5034084;28;20056;-59
2022/05/17 00:14:04;;;;;;;10.13;2.47;;;16.40;99.90;;;;;;5051525;28;20036;-58
2022/05/17 00:16:30;;;;;;;9.48;2.60;;;16.50;99.90;;;;;;5051602;28;20028;-58
2022/05/17 00:18:56;;;;;;;7.75;2.20;;;16.50;99.90;;;;;;5051544;28;20021;-58
2022/05/17 00:21:22;;;;;;;6.05;2.08;;;16.50;99.90;;;;;;5051965;28;20401;-58
2022/05/17 00:23:48;;;;;;;6.28;2.38;;;16.50;99.90;;;;;;5051750;28;20025;-58
2022/05/17 00:26:13;;;;;;;7.35;2.10;;;16.30;99.90;;;;;;5051878;28;20434;-58
2022/05/17 00:28:39;;;;;;;10.27;2.60;;;16.30;99.90;;;;;;5052033;28;20071;-59
2022/05/17 00:31:06;;;;;;;6.95;2.40;;;16.30;99.90;;;;;;5051802;28;20120;-59
2022/05/17 00:33:33;;;;;;;6.50;2.40;;;16.40;99.90;;;;;;5052090;28;20028;-58
2022/05/17 00:36:00;;;;;;;9.10;2.25;;;16.50;99.90;;;;;;5052109;28;20088;-58
2022/05/17 00:38:25;;;;;;;6.70;2.22;;;16.70;99.90;;;;;;5033619;28;20021;-58
2022/05/17 00:40:51;;;;;;;6.32;2.20;;;16.90;99.90;;;;;;5051428;28;20106;-58
2022/05/17 00:46:43;;;;;;;8.82;2.05;;;17.30;99.90;;;;;;5051898;28;20040;-59
2022/05/17 00:49:13;;;;;;;6.93;2.17;;;17.30;99.90;;;;;;5033509;28;20021;-59
2022/05/17 00:51:41;;;;;;;8.98;2.00;;;17.20;99.90;;;;;;5051831;28;20029;-59
2022/05/17 00:54:11;;;;;;;5.97;2.08;;;17.00;99.90;;;;;;5051565;28;20028;-58
2022/05/17 00:56:45;;;;;;;9.48;2.30;;;17.00;99.90;;;;;;5053370;28;20531;-59
2022/05/17 00:59:17;;;;;;;6.40;2.25;;;17.00;99.90;;;;;;5055184;28;20078;-58
2022/05/17 01:01:43;;;;;;;8.85;2.40;;;16.90;99.90;;;;;;5055306;28;20053;-58
2022/05/17 01:04:14;;;;;;;9.07;2.22;;;16.90;99.90;;;;;;5055437;28;20373;-58
2022/05/17 01:06:45;;;;;;;6.07;1.95;;;16.80;99.90;;;;;;5055227;28;20025;-58
2022/05/17 01:09:15;;;;;;;9.57;2.55;;;16.60;99.90;;;;;;5055400;28;20473;-58
2022/05/17 01:11:42;;;;;;;8.40;2.55;;;16.50;99.90;;;;;;5055261;28;20078;-59
2022/05/17 01:16:53;;;;;;;8.88;2.67;;;16.40;99.90;;;;;;5054774;28;20075;-59
2022/05/17 01:19:19;;;;;;;6.35;2.35;;;16.40;99.90;;;;;;5054969;28;20079;-58
2022/05/17 01:21:45;;;;;;;9.15;2.50;;;16.40;99.90;;;;;;5055204;28;20025;-59
2022/05/17 01:24:11;;;;;;;5.25;2.25;;;16.60;99.90;;;;;;5036923;28;20056;-58
2022/05/17 01:26:43;;;;;;;7.68;2.33;;;16.70;99.90;;;;;;5055248;28;20052;-58
2022/05/17 01:29:11;;;;;;;10.65;2.60;;;16.80;99.90;;;;;;5055047;28;20045;-58
2022/05/17 01:31:38;;;;;;;9.02;2.42;;;16.70;99.90;;;;;;5054862;28;20029;-58
2022/05/17 01:34:10;;;;;;;8.57;2.45;;;16.60;99.90;;;;;;5054585;28;20017;-58
2022/05/17 01:36:37;;;;;;;9.73;2.42;;;16.40;99.90;;;;;;5054895;28;20021;-58
2022/05/17 01:39:04;;;;;;;8.15;2.30;;;16.40;99.90;;;;;;5054584;28;20037;-58
2022/05/17 01:41:30;;;;;;;7.25;2.83;;;16.40;99.90;;;;;;5054405;28;20025;-58
2022/05/17 01:43:56;;;;;;;6.05;2.40;;;16.40;99.90;;;;;;5036756;28;20017;-59
2022/05/17 01:46:25;;;;;;;8.13;2.28;;;16.40;99.90;;;;;;5054721;28;20485;-58
2022/05/17 01:48:52;;;;;;;8.65;2.17;;;16.50;99.90;;;;;;5054201;28;20017;-58
2022/05/17 01:51:19;;;;;;;5.85;2.03;;;16.50;99.90;;;;;;5036200;28;20032;-58
2022/05/17 01:53:45;;;;;;;7.00;2.53;;;16.40;99.90;;;;;;5054063;28;20048;-59
2022/05/17 01:56:11;;;;;;;8.75;2.50;;;16.50;99.90;;;;;;5036483;28;20063;-60
2022/05/17 01:58:37;;;;;;;6.85;2.05;;;16.70;99.90;;;;;;5054063;28;20071;-58
2022/05/17 02:01:06;;;;;;;7.20;2.13;;;16.90;99.90;;;;;;5035925;28;20551;-58
2022/05/17 02:03:31;;;;;;;8.60;2.50;;;17.10;99.90;;;;;;5053981;28;20449;-58
2022/05/17 02:05:57;;;;;;;5.30;2.25;;;17.30;99.90;;;;;;5054060;28;20100;-58
2022/05/17 02:08:23;;;;;;;7.05;2.63;;;17.20;99.90;;;;;;5053867;28;20059;-58
2022/05/17 02:10:49;;;;;;;10.00;2.60;;;17.20;99.90;;;;;;5054137;28;20390;-58
2022/05/17 02:13:21;;;;;;;8.05;2.53;;;17.20;99.90;;;;;;5053875;28;20028;-59
2022/05/17 02:15:46;;;;;;;8.27;2.15;;;17.30;99.90;;;;;;5053806;28;20420;-58
2022/05/17 02:18:12;;;;;;;7.88;2.30;;;17.30;99.90;;;;;;5053853;28;20037;-58
2022/05/17 02:20:38;;;;;;;5.25;2.13;;;17.30;99.90;;;;;;5053464;28;20049;-60
2022/05/17 02:23:04;;;;;;;6.45;2.25;;;17.30;99.90;;;;;;5053765;28;20020;-60
2022/05/17 02:25:29;;;;;;;10.55;2.20;;;17.30;99.90;;;;;;5053999;28;20362;-60
2022/05/17 02:27:55;;;;;;;8.30;2.08;;;17.30;99.90;;;;;;5053757;28;20393;-59
2022/05/17 02:30:21;;;;;;;6.15;2.15;;;17.30;99.90;;;;;;5053564;28;20501;-58
2022/05/17 02:32:46;;;;;;;6.85;2.13;;;17.30;99.90;;;;;;5035553;28;20059;-59
2022/05/17 02:35:13;;;;;;;7.38;2.13;;;17.40;99.90;;;;;;5053960;28;20469;-59
2022/05/17 02:37:39;;;;;;;4.43;2.03;;;17.40;99.90;;;;;;5053531;28;20029;-59
2022/05/17 02:40:06;;;;;;;6.78;1.90;;;17.40;99.90;;;;;;5053298;28;20125;-59
2022/05/17 02:42:31;;;;;;;8.57;2.30;;;17.40;99.90;;;;;;5053624;28;20017;-58
2022/05/17 02:44:57;;;;;;;8.50;2.30;;;17.40;99.90;;;;;;5053419;28;20689;-58
2022/05/17 02:47:22;;;;;;;5.50;1.80;;;17.60;99.90;;;;;;5053087;28;20412;-58
2022/05/17 02:49:48;;;;;;;4.97;2.33;;;17.60;99.90;;;;;;5053409;28;20049;-58
2022/05/17 02:52:14;;;;;;;7.60;2.63;;;17.40;99.90;;;;;;5052962;28;20035;-58
2022/05/17 02:54:40;;;;;;;7.13;1.92;;;17.30;99.90;;;;;;5053013;28;20021;-58
2022/05/17 02:57:07;;;;;;;7.35;2.30;;;17.20;99.90;;;;;;5034998;28;20087;-58
2022/05/17 02:59:33;;;;;;;6.72;2.15;;;17.00;99.90;;;;;;5052640;28;20043;-58
2022/05/17 03:01:59;;;;;;;7.85;2.60;;;17.00;99.90;;;;;;5052724;28;20021;-59
2022/05/17 03:04:29;;;;;;;8.13;2.55;;;17.10;99.90;;;;;;5035127;28;20025;-59
2022/05/17 03:06:55;;;;;;;7.25;2.40;;;17.00;99.90;;;;;;5052635;28;20481;-59
2022/05/17 03:09:20;;;;;;;9.77;2.72;;;17.10;99.90;;;;;;5052839;28;20036;-58
2022/05/17 03:11:49;;;;;;;7.55;2.67;;;17.00;99.90;;;;;;5052616;28;20099;-58
2022/05/17 03:14:19;;;;;;;8.95;2.60;;;17.00;99.90;;;;;;5035005;28;20037;-59
2022/05/17 03:16:45;;;;;;;11.82;3.00;;;17.30;99.90;;;;;;5052615;28;20031;-59
2022/05/17 03:19:11;;;;;;;10.88;2.72;;;17.50;99.90;;;;;;5033851;28;20037;-58
2022/05/17 03:21:37;;;;;;;10.45;2.97;;;17.30;99.90;;;;;;5052702;28;20067;-59
2022/05/17 03:24:06;;;;;;;7.43;2.30;;;17.20;99.90;;;;;;5034495;28;20064;-59
2022/05/17 03:26:32;;;;;;;8.40;2.30;;;17.20;99.90;;;;;;5034451;28;20021;-59
2022/05/17 03:29:00;;;;;;;7.03;2.80;;;16.90;99.90;;;;;;5052348;28;20068;-58
2022/05/17 03:31:26;;;;;;;7.88;2.80;;;16.70;99.90;;;;;;5052237;28;20029;-58
2022/05/17 03:33:52;;;;;;;8.20;2.42;;;16.80;99.90;;;;;;5052510;28;20032;-59
2022/05/17 03:36:18;;;;;;;9.20;2.50;;;16.70;99.90;;;;;;5052918;28;20033;-59
2022/05/17 03:38:44;;;;;;;7.63;2.83;;;16.60;99.90;;;;;;5034781;28;20040;-59
2022/05/17 03:41:10;;;;;;;8.25;2.78;;;16.50;99.90;;;;;;5052180;28;20044;-59
2022/05/17 03:43:35;;;;;;;8.70;2.58;;;16.50;99.90;;;;;;5034238;28;20021;-59
2022/05/17 03:46:02;;;;;;;8.68;2.97;;;16.70;99.90;;;;;;5052587;28;20099;-59
2022/05/17 03:48:28;;;;;;;9.70;2.97;;;16.80;99.90;;;;;;5052128;28;20021;-59
2022/05/17 03:50:54;;;;;;;9.18;3.10;;;17.00;99.90;;;;;;5052195;28;20029;-58
2022/05/17 03:53:20;;;;;;;9.48;3.25;;;17.00;99.90;;;;;;5052080;28;20033;-59
2022/05/17 03:55:46;;;;;;;7.63;2.83;;;17.10;99.90;;;;;;5034435;28;20029;-59
2022/05/17 03:58:12;;;;;;;12.18;3.30;;;17.20;99.90;;;;;;5051926;28;20103;-59
2022/05/17 04:00:38;;;;;;;15.35;3.45;;;17.20;99.90;;;;;;5051751;28;20100;-58
2022/05/17 04:03:03;;;;;;;5.47;2.33;;;17.40;99.90;;;;;;5051348;28;20056;-58
2022/05/17 04:05:29;;;;;;;6.90;2.58;;;17.40;99.90;;;;;;5033982;28;20508;-58
2022/05/17 04:07:55;;;;;;;11.65;2.67;;;17.20;99.90;;;;;;5033925;28;20028;-58
2022/05/17 04:10:21;;;;;;;10.80;2.92;;;17.10;99.90;;;;;;5051991;28;20021;-59
2022/05/17 04:12:47;;;;;;;11.77;3.42;;;17.20;99.90;;;;;;5051777;28;20500;-58
2022/05/17 04:15:16;;;;;;;18.50;3.55;;;17.40;99.90;;;;;;5051731;28;20029;-59
2022/05/17 04:17:41;;;;;;;14.13;2.88;;;17.50;99.90;;;;;;5051835;28;20061;-58
2022/05/17 04:20:09;;;;;;;16.40;3.67;;;17.40;99.90;;;;;;5051229;28;20079;-59
2022/05/17 04:22:35;;;;;;;10.40;2.35;;;17.40;99.90;;;;;;5033716;28;20063;-58
2022/05/17 04:25:00;;;;;;;11.20;3.28;;;17.40;99.90;;;;;;5052029;28;20020;-58
2022/05/17 04:27:26;;;;;;;7.50;2.53;;;17.30;99.90;;;;;;5051312;28;20021;-59
2022/05/17 04:29:52;;;;;;;9.88;2.83;;;17.20;99.90;;;;;;5033826;28;20517;-59
2022/05/17 04:32:21;;;;;;;7.07;2.70;;;17.10;99.90;;;;;;5054933;28;20096;-59
2022/05/17 04:34:47;;;;;;;9.40;2.50;;;17.20;99.90;;;;;;5055757;28;20029;-58
2022/05/17 04:37:12;;;;;;;10.82;2.75;;;17.30;99.90;;;;;;5055752;28;20083;-58
2022/05/17 04:39:38;;;;;;;13.82;3.67;;;17.40;99.90;;;;;;5037462;28;20032;-58
2022/05/17 04:42:04;;;;;;;13.57;2.90;;;17.70;99.90;;;;;;5055732;28;20017;-58
2022/05/17 04:44:30;;;;;;;9.27;2.75;;;17.90;99.90;;;;;;5055715;28;20025;-58
2022/05/17 04:46:56;;;;;;;13.60;2.97;;;17.80;99.90;;;;;;5055441;28;20025;-59
2022/05/17 04:49:22;;;;;;;7.35;2.90;;;17.80;99.90;;;;;;5055364;28;20021;-59
2022/05/17 04:51:51;;;;;;;9.95;2.55;;;17.90;99.90;;;;;;5055381;28;20380;-59
2022/05/17 04:54:17;;;;;;;8.85;2.65;;;17.70;99.90;;;;;;5038286;28;20027;-58
2022/05/17 04:56:43;;;;;;;9.95;2.70;;;17.60;99.90;;;;;;5037602;28;20111;-58
2022/05/17 04:59:09;;;;;;;9.57;2.53;;;17.70;99.90;;;;;;5055197;28;20025;-59
2022/05/17 05:01:34;;;;;;;12.57;2.80;;;17.70;99.90;;;;;;5037149;28;20021;-58
2022/05/17 05:04:03;;;;;;;11.43;2.80;;;17.70;99.90;;;;;;5055138;28;20105;-58
2022/05/17 05:06:29;;;;;;;12.02;2.60;;;17.80;99.90;;;;;;5037541;28;20063;-58
2022/05/17 05:08:55;;;;;;;7.47;2.40;;;17.90;99.90;;;;;;5055076;28;20057;-58
2022/05/17 05:11:20;;;;;;;12.30;3.10;;;18.00;99.90;;;;;;5055201;28;20068;-58
2022/05/17 05:13:46;;;;;;;20.42;3.63;;;18.00;99.90;;;;;;5037658;28;20500;-59
2022/05/17 05:16:14;;;;;;;12.95;2.50;;;18.00;99.90;;;;;;5055373;28;20025;-58
2022/05/17 05:18:40;;;;;;;10.27;3.17;;;18.00;99.90;;;;;;5054407;28;20032;-58
2022/05/17 05:21:10;;;;;;;8.10;2.40;;;18.00;99.90;;;;;;5054582;28;20659;-58
2022/05/17 05:23:37;;;;;;;11.10;2.85;;;18.00;99.90;;;;;;5054952;28;20103;-58
2022/05/17 05:26:03;;;;;;;11.82;3.20;;;18.10;99.90;;;;;;5054612;28;20017;-58
2022/05/17 05:28:29;;;;;;;24.52;4.60;;;18.10;99.90;;;;;;5054404;28;20021;-58
2022/05/17 05:30:55;;;;;;;13.85;3.20;;;18.10;99.90;;;;;;5053929;28;20033;-58
2022/05/17 05:33:24;;;;;;;11.80;3.42;;;18.10;99.90;;;;;;5054348;28;20037;-58
2022/05/17 05:35:52;;;;;;;14.15;3.72;;;18.00;99.90;;;;;;5036100;28;20025;-58
2022/05/17 05:38:18;;;;;;;13.00;3.90;;;17.90;99.90;;;;;;5054057;28;20119;-58
2022/05/17 05:40:44;;;;;;;18.23;3.92;;;17.80;99.90;;;;;;5053608;28;20615;-58
2022/05/17 05:43:10;;;;;;;13.77;3.67;;;17.80;99.90;;;;;;5053429;28;20044;-58
2022/05/17 05:45:36;;;;;;;10.75;3.67;;;17.70;99.90;;;;;;5054221;28;20021;-58
2022/05/17 05:48:01;;;;;;;13.18;3.75;;;17.70;99.90;;;;;;5053822;28;20075;-58
2022/05/17 05:50:27;;;;;;;11.85;3.85;;;17.80;99.90;;;;;;5053982;28;20029;-58
2022/05/17 05:53:05;;;;;;;17.67;4.35;;;17.80;99.90;;;;;;5030881;28;20036;-58
2022/05/17 05:55:31;;;;;;;13.95;3.90;;;17.90;99.90;;;;;;5016188;28;20533;-58
2022/05/17 05:57:58;;;;;;;11.07;3.97;;;17.90;99.90;;;;;;5033758;28;20026;-58
2022/05/17 06:00:24;;;;;;;10.32;3.60;;;17.90;99.90;;;;;;5042419;28;20104;-58
2022/05/17 06:02:50;;;;;;;22.08;4.05;;;18.00;99.90;;;;;;5024803;28;20033;-58
2022/05/17 06:05:16;;;;;;;13.13;4.00;;;18.00;99.90;;;;;;5030349;28;20028;-58
2022/05/17 06:07:42;;;;;;;17.92;4.07;;;18.10;99.90;;;;;;5047070;28;20090;-58
2022/05/17 06:10:09;;;;;;;12.60;4.10;;;18.10;99.90;;;;;;5043411;28;20476;-58
2022/05/17 06:12:34;;;;;;;17.00;4.07;;;18.20;99.90;;;;;;5045702;28;20087;-57
2022/05/17 06:15:00;;;;;;;12.68;3.85;;;18.30;99.90;;;;;;5037920;28;20128;-58
2022/05/17 06:17:27;;;;;;;17.05;4.30;;;18.50;99.90;;;;;;5048065;28;20100;-57
2022/05/17 06:19:54;;;;;;;24.30;4.65;;;18.60;99.90;;;;;;5040805;28;20045;-58
2022/05/17 06:22:19;;;;;;;23.33;4.80;;;18.70;99.90;;;;;;5047134;28;20106;-58
2022/05/17 06:24:45;;;;;;;19.33;4.30;;;19.10;99.90;;;;;;5038248;28;20025;-58
2022/05/17 06:27:11;;;;;;;27.27;5.25;;;19.40;99.90;;;;;;5024577;28;20021;-58
2022/05/17 06:29:36;;;;;;;21.40;5.00;;;19.40;99.90;;;;;;5039009;28;20126;-57
2022/05/17 06:32:02;;;;;;;16.48;4.82;;;19.60;99.90;;;;;;5046080;28;20055;-58
2022/05/17 06:34:28;;;;;;;16.20;4.40;;;19.70;99.90;;;;;;5018745;28;20465;-57
2022/05/17 06:36:53;;;;;;;10.90;4.28;;;19.70;99.90;;;;;;5033799;28;20040;-57
2022/05/17 06:39:19;;;;;;;13.63;4.57;;;19.80;99.90;;;;;;5031674;28;20047;-58
2022/05/17 06:41:45;;;;;;;15.10;4.57;;;20.00;99.90;;;;;;5004141;28;20630;-58
2022/05/17 06:44:11;;;;;;;20.65;4.70;;;19.80;99.90;;;;;;5018898;28;20151;-58
2022/05/17 06:46:36;;;;;;;13.45;4.65;;;20.00;99.90;;;;;;5022471;28;20112;-58
2022/05/17 06:49:02;;;;;;;13.57;4.78;;;20.30;99.90;;;;;;5023106;28;20478;-58
2022/05/17 06:51:28;;;;;;;9.23;3.97;;;20.30;99.90;;;;;;5037132;28;20052;-58
2022/05/17 06:53:54;;;;;;;14.23;4.82;;;20.20;99.90;;;;;;5038497;28;20537;-59
2022/05/17 06:56:19;;;;;;;17.83;4.47;;;20.30;99.90;;;;;;5038116;28;20112;-59
2022/05/17 06:58:45;;;;;;;19.95;4.50;;;20.40;99.90;;;;;;5039052;28;20362;-57
2022/05/17 07:01:11;;;;;;;14.35;4.75;;;20.60;99.90;;;;;;5045824;28;20033;-58
2022/05/17 07:03:36;;;;;;;14.43;4.35;;;20.60;99.90;;;;;;5052936;28;20562;-58
2022/05/17 07:06:03;;;;;;;16.67;5.07;;;20.60;99.90;;;;;;5042999;28;20090;-59
2022/05/17 07:08:28;;;;;;;22.75;5.15;;;20.60;99.90;;;;;;5046784;28;20104;-58
2022/05/17 07:13:52;;;;;;;13.45;4.28;;;20.50;99.90;;;;;;4996882;28;20068;-58
2022/05/17 07:16:18;;;;;;;13.75;4.43;;;20.70;99.90;;;;;;5024609;28;20476;-58
2022/05/17 07:18:44;;;;;;;10.85;4.35;;;21.00;99.90;;;;;;5025322;28;20112;-58
2022/05/17 07:21:13;;;;;;;18.45;4.30;;;20.90;99.90;;;;;;5027950;28;20556;-58
2022/05/17 07:23:40;;;;;;;9.05;4.40;;;21.20;99.90;;;;;;5026485;28;20037;-58
2022/05/17 07:26:07;;;;;;;9.60;3.92;;;21.80;99.90;;;;;;5005690;28;20033;-58
2022/05/17 07:28:43;;;;;;;11.27;3.80;;;22.40;99.90;;;;;;5004017;28;20069;-57
2022/05/17 07:31:09;;;;;;;13.52;4.13;;;23.00;99.90;;;;;;5023774;28;20040;-57
2022/05/17 07:33:35;;;;;;;14.27;3.72;;;23.50;99.90;;;;;;5024033;28;20125;-57
2022/05/17 07:36:02;;;;;;;16.23;4.28;;;23.80;99.90;;;;;;5020379;28;20467;-58
2022/05/17 07:38:29;;;;;;;8.93;3.45;;;23.90;99.90;;;;;;5023548;28;20387;-57
2022/05/17 07:40:54;;;;;;;15.32;4.43;;;24.20;99.90;;;;;;5020169;28;20560;-57
2022/05/17 07:43:21;;;;;;;10.55;4.40;;;24.10;99.90;;;;;;5021820;28;20072;-57
2022/05/17 07:45:49;;;;;;;7.63;4.18;;;24.30;99.90;;;;;;5019548;28;20259;-58
2022/05/17 07:48:17;;;;;;;12.38;4.00;;;24.40;99.90;;;;;;5021229;28;20401;-58
2022/05/17 07:50:42;;;;;;;7.85;4.55;;;24.50;99.90;;;;;;5022531;28;20193;-58
2022/05/17 07:53:10;;;;;;;6.75;3.70;;;24.80;99.90;;;;;;5018411;28;20501;-58
2022/05/17 07:55:37;;;;;;;8.90;4.45;;;25.20;99.90;;;;;;5021081;28;20118;-58
2022/05/17 07:58:04;;;;;;;8.07;3.80;;;25.70;99.70;;;;;;5020244;28;20079;-58
2022/05/17 08:00:30;;;;;;;7.40;4.10;;;26.00;99.10;;;;;;5022996;28;20037;-58
2022/05/17 08:02:58;;;;;;;17.27;4.72;;;27.00;97.90;;;;;;5022726;28;20048;-58
2022/05/17 08:05:25;;;;;;;11.80;4.60;;;27.50;96.00;;;;;;5023755;28;20024;-58
2022/05/17 08:07:51;;;;;;;10.88;4.82;;;27.30;95.20;;;;;;5021631;28;20083;-59
2022/05/17 08:10:17;;;;;;;10.20;4.80;;;26.10;96.70;;;;;;5026189;28;20540;-58
2022/05/17 08:12:42;;;;;;;10.82;4.43;;;25.70;98.00;;;;;;5022767;28;20031;-58
2022/05/17 08:15:09;;;;;;;11.88;5.25;;;25.40;98.70;;;;;;5024038;28;20045;-59
2022/05/17 08:17:35;;;;;;;9.52;4.63;;;25.80;97.90;;;;;;5025736;28;20033;-59
2022/05/17 08:20:02;;;;;;;11.68;4.60;;;25.80;98.20;;;;;;5017708;28;20090;-59
2022/05/17 08:22:28;;;;;;;11.15;4.72;;;25.60;98.80;;;;;;5041689;28;20029;-59
2022/05/17 08:27:37;;;;;;;7.32;4.57;;;26.20;97.30;;;;;;5036792;28;20040;-59
2022/05/17 08:30:13;;;;;;;8.43;4.72;;;25.60;98.10;;;;;;5026251;28;20045;-59
2022/05/17 08:35:41;;;;;;;7.13;4.13;;;26.20;97.00;;;;;;5018395;28;20068;-59
2022/05/17 08:38:08;;;;;;;5.70;4.32;;;26.00;97.80;;;;;;4998950;28;20465;-59
2022/05/17 08:40:58;;;;;;;11.88;4.93;;;26.30;97.10;;;;;;5020084;28;20048;-59
2022/05/17 08:43:26;;;;;;;8.98;4.90;;;26.20;97.70;;;;;;4996810;28;20057;-59
2022/05/17 08:46:09;;;;;;;8.85;5.45;;;26.60;96.90;;;;;;5017348;28;20033;-59
2022/05/17 08:48:46;;;;;;;8.88;5.38;;;26.10;97.60;;;;;;5019154;28;20449;-58
2022/05/17 08:51:16;;;;;;;8.18;5.10;;;26.50;97.40;;;;;;5020409;28;20041;-58
2022/05/17 08:53:43;;;;;;;9.77;5.43;;;26.60;96.70;;;;;;5000112;28;20033;-58
2022/05/17 08:56:09;;;;;;;11.25;5.20;;;26.40;97.20;;;;;;5018819;28;21200;-58
2022/05/17 08:58:38;;;;;;;10.75;5.38;;;26.10;97.60;;;;;;5015933;28;20029;-58
2022/05/17 09:01:12;;;;;;;7.65;4.82;;;26.10;97.70;;;;;;5019516;28;20029;-58
2022/05/17 09:04:04;;;;;;;9.38;4.80;;;26.20;97.70;;;;;;5020357;28;20022;-58
2022/05/17 09:07:02;;;;;;;8.23;5.23;;;26.80;97.00;;;;;;5020227;28;20025;-58
2022/05/17 09:09:41;;;;;;;8.57;4.95;;;26.80;97.00;;;;;;5016691;28;20468;-59
2022/05/17 09:12:23;;;;;;;15.68;5.00;;;26.80;96.90;;;;;;5020431;28;20495;-59
2022/05/17 09:14:51;;;;;;;9.35;4.90;;;26.40;96.90;;;;;;5023628;28;20040;-59
2022/05/17 09:17:24;;;;;;;8.63;4.95;;;26.50;97.30;;;;;;5030581;28;20044;-59
2022/05/17 09:19:53;;;;;;;11.98;4.40;;;27.10;96.30;;;;;;5035228;28;20041;-59
2022/05/17 09:22:20;;;;;;;6.85;3.78;;;27.30;96.40;;;;;;5006558;28;20033;-59
2022/05/17 09:24:51;;;;;;;5.05;3.22;;;27.90;95.70;;;;;;5023170;28;20045;-59
2022/05/17 09:27:32;;;;;;;9.57;3.20;;;27.60;95.30;;;;;;5027432;28;20029;-59
2022/05/17 09:30:23;;;;;;;8.98;3.30;;;27.80;95.20;;;;;;5018791;28;20044;-59
2022/05/17 09:33:04;;;;;;;5.33;3.13;;;27.10;95.80;;;;;;5000200;28;20037;-59
2022/05/17 09:35:32;;;;;;;12.23;3.80;;;26.90;95.50;;;;;;5022318;28;20297;-58
2022/05/17 09:38:03;;;;;;;4.85;3.10;;;27.10;96.10;;;;;;5023654;28;20835;-59
2022/05/17 09:40:35;;;;;;;6.87;2.80;;;27.40;95.90;;;;;;5024862;28;20065;-59
2022/05/17 09:43:04;;;;;;;8.27;3.13;;;27.60;93.60;;;;;;5023930;28;20288;-59
2022/05/17 09:45:49;;;;;;;6.07;2.97;;;28.00;93.80;;;;;;5001298;28;20087;-59
2022/05/17 09:48:31;;;;;;;5.68;3.00;;;28.40;94.00;;;;;;5025362;28;20112;-59
2022/05/17 09:54:00;;;;;;;6.80;2.10;;;28.40;92.80;;;;;;5020988;28;20048;-59
2022/05/17 09:56:27;;;;;;;3.25;1.70;;;28.00;91.60;;;;;;5021952;28;20060;-59
2022/05/17 09:58:56;;;;;;;4.47;1.95;;;27.90;91.30;;;;;;5024104;28;20076;-59
2022/05/17 10:01:28;;;;;;;5.22;2.00;;;27.90;91.00;;;;;;5025659;28;20457;-59
2022/05/17 10:04:05;;;;;;;;;;;28.50;91.00;;;;;;5026482;28;20033;-59
2022/05/17 10:06:36;;;;;;;5.00;2.03;;;28.40;90.40;;;;;;5024204;28;19917;-57
2022/05/17 10:09:06;;;;;;;5.03;2.20;;;28.90;90.10;;;;;;5022516;28;20022;-57
2022/05/17 10:11:41;;;;;;;6.28;1.95;;;29.00;89.10;;;;;;5001930;28;20093;-57
2022/05/17 10:14:07;;;;;;;4.53;1.80;;;28.90;87.00;;;;;;5023605;28;20033;-59
2022/05/17 10:16:48;;;;;;;9.93;2.13;;;28.90;86.20;;;;;;5035176;28;20031;-59
2022/05/17 10:19:28;;;;;;;6.68;1.60;;;29.10;86.60;;;;;;5026361;28;20051;-59
2022/05/17 10:22:00;;;;;;;5.55;1.58;;;28.60;83.80;;;;;;5037268;28;20038;-59
2022/05/17 10:24:41;;;;;;;6.22;1.65;;;29.00;82.10;;;;;;5045923;28;20023;-59
2022/05/17 10:27:26;;;;;;;7.25;2.17;;;29.30;82.50;;;;;;5038160;28;20086;-59
2022/05/17 10:30:00;;;;;;;5.57;1.80;;;28.60;83.20;;;;;;5044857;28;20079;-59
2022/05/17 10:32:34;;;;;;;3.75;1.80;;;28.80;83.00;;;;;;5050053;28;20029;-59
2022/05/17 10:35:09;;;;;;;3.50;1.80;;;28.90;84.10;;;;;;5046784;28;20048;-59
2022/05/17 10:38:01;;;;;;;2.92;1.83;;;29.20;84.80;;;;;;5043526;28;20032;-59
2022/05/17 10:40:35;;;;;;;6.10;1.75;;;29.10;81.20;;;;;;5045363;28;20032;-58
2022/05/17 10:43:02;;;;;;;6.53;1.65;;;28.40;80.00;;;;;;5044927;28;20107;-59
2022/05/17 10:45:35;;;;;;;8.75;2.30;;;28.00;82.90;;;;;;5028879;28;20065;-59
2022/05/17 10:48:01;;;;;;;7.70;1.90;;;27.60;84.30;;;;;;5043077;28;20041;-58
2022/05/17 10:50:36;;;;;;;5.72;1.70;;;27.50;85.10;;;;;;5037741;28;20060;-59
2022/05/17 10:53:16;;;;;;;5.15;2.33;;;27.70;84.40;;;;;;5041966;28;20029;-59
2022/05/17 10:55:56;;;;;;;4.60;1.95;;;27.70;83.10;;;;;;5028544;28;20354;-58
2022/05/17 10:58:35;;;;;;;4.60;2.13;;;27.90;85.70;;;;;;5040552;28;20028;-58
2022/05/17 11:01:19;;;;;;;7.03;2.15;;;28.20;84.20;;;;;;5044553;28;20020;-58
2022/05/17 11:04:07;;;;;;;5.50;2.42;;;28.30;83.40;;;;;;5024866;28;20025;-58
2022/05/17 11:07:06;;;;;;;5.93;1.70;;;28.20;83.20;;;;;;5036992;28;20445;-57
2022/05/17 11:10:05;;;;;;;6.97;2.38;;;28.80;82.70;;;;;;5038241;28;20055;-57
2022/05/17 11:12:39;;;;;;;3.40;1.63;;;29.80;81.00;;;;;;5033407;28;20139;-57
2022/05/17 11:15:13;;;;;;;4.22;2.00;;;30.70;80.10;;;;;;5038812;28;20088;-57
2022/05/17 11:18:01;;;;;;;6.43;2.17;;;30.90;76.10;;;;;;5031250;28;20104;-59
2022/05/17 11:21:01;;;;;;;5.00;2.08;;;30.50;75.20;;;;;;5026678;28;20048;-57
2022/05/17 11:23:56;;;;;;;3.80;1.67;;;30.30;76.10;;;;;;5025361;28;20558;-58
2022/05/17 11:26:37;;;;;;;4.13;1.60;;;29.90;76.90;;;;;;5040198;28;20025;-58
2022/05/17 11:29:21;;;;;;;6.40;1.80;;;29.90;76.50;;;;;;5036536;28;20270;-58
2022/05/17 11:32:14;;;;;;;4.40;1.73;;;30.60;76.40;;;;;;5032736;28;20059;-58
2022/05/17 11:34:42;;;;;;;3.08;1.60;;;31.00;75.20;;;;;;5033825;28;20428;-58
2022/05/17 11:37:29;;;;;;;7.15;3.15;;;31.40;73.50;;;;;;5034654;28;20035;-58
2022/05/17 11:39:55;;;;;;;4.78;1.88;;;32.00;72.50;;;;;;5034424;28;20037;-58
2022/05/17 11:42:20;;;;;;;5.72;1.70;;;32.10;66.80;;;;;;5036659;28;20039;-58
2022/05/17 11:44:48;;;;;;;8.30;2.08;;;32.10;66.80;;;;;;5032377;28;20492;-58
2022/05/17 11:47:29;;;;;;;4.53;1.63;;;32.50;67.60;;;;;;5032934;28;20029;-58
2022/05/17 11:50:21;;;;;;;5.35;1.83;;;31.70;66.90;;;;;;5039166;28;20020;-58
2022/05/17 11:52:55;;;;;;;;;;;30.40;68.70;;;;;;5037464;28;20029;-58
2022/05/17 11:55:25;;;;;;;3.25;1.45;;;30.10;70.40;;;;;;5042847;28;20262;-58
2022/05/17 11:57:51;;;;;;;7.50;3.70;;;29.70;71.60;;;;;;5043795;28;20103;-59
2022/05/17 12:00:27;;;;;;;11.45;10.52;;;29.90;72.80;;;;;;5038956;28;20029;-58
2022/05/17 12:02:58;;;;;;;2.95;1.58;;;30.70;71.50;;;;;;5041920;28;20021;-58
2022/05/17 12:05:43;;;;;;;3.92;1.63;;;31.20;71.90;;;;;;5044913;28;20108;-58
2022/05/17 12:08:27;;;;;;;6.05;1.75;;;31.50;69.20;;;;;;5043040;28;20039;-59
2022/05/17 12:11:11;;;;;;;4.40;1.60;;;30.20;70.80;;;;;;5044610;28;20036;-58
2022/05/17 12:13:58;;;;;;;5.47;1.38;;;31.00;71.60;;;;;;5036566;28;20223;-57
2022/05/17 12:16:29;;;;;;;5.60;1.48;;;31.70;69.30;;;;;;5026248;28;20067;-57
2022/05/17 12:19:04;;;;;;;;;;;31.70;69.90;;;;;;5020764;28;20048;-57
2022/05/17 12:21:57;;;;;;;3.60;1.23;;;31.90;67.60;;;;;;5024209;28;19934;-58
2022/05/17 12:24:35;;;;;;;5.07;1.50;;;31.30;69.20;;;;;;5026245;28;20116;-57
2022/05/17 12:27:07;;;;;;;4.35;1.40;;;31.00;68.20;;;;;;5026083;28;20041;-57
2022/05/17 12:32:35;;;;;;;3.67;1.45;;;31.90;68.50;;;;;;5022930;28;20126;-57
2022/05/17 12:35:01;;;;;;;11.43;1.63;;;31.80;64.80;;;;;;5022203;28;20825;-58
2022/05/17 12:37:28;;;;;;;4.75;1.50;;;30.90;65.60;;;;;;5023939;28;20112;-58
2022/05/17 12:45:30;;;;;;;12.48;1.80;;;32.20;64.00;;;;;;5022339;28;20037;-58
2022/05/17 12:47:59;;;;;;;3.38;1.30;;;32.20;64.10;;;;;;5021739;28;20482;-58
2022/05/17 12:50:50;;;;;;;5.60;1.88;;;31.70;64.90;;;;;;5022357;28;20039;-58
2022/05/17 12:53:18;;;;;;;7.50;1.52;;;30.80;66.70;;;;;;5013924;28;20080;-58
2022/05/17 12:56:03;;;;;;;3.88;1.60;;;30.70;65.00;;;;;;5028485;28;20056;-58
2022/05/17 12:58:29;;;;;;;3.88;1.50;;;31.50;64.10;;;;;;5042789;28;20732;-58
2022/05/17 13:00:58;;;;;;;4.15;1.27;;;31.80;63.60;;;;;;5020703;28;20212;-57
2022/05/17 13:03:27;;;;;;;5.43;1.40;;;32.50;61.70;;;;;;5047182;28;20029;-58
2022/05/17 13:05:55;;;;;;;4.90;1.35;;;32.40;59.80;;;;;;5045356;28;20025;-59
2022/05/17 13:08:23;;;;;;;3.70;1.33;;;31.80;60.40;;;;;;5041251;28;20437;-58
2022/05/17 13:11:00;;;;;;;3.08;1.17;;;31.00;62.10;;;;;;5047177;28;20050;-58
2022/05/17 13:13:31;;;;;;;5.70;1.38;;;31.70;59.20;;;;;;5045998;28;20027;-58
2022/05/17 13:16:13;;;;;;;8.18;1.92;;;31.30;59.20;;;;;;5048029;28;20024;-58
2022/05/17 13:18:49;;;;;;;3.30;1.25;;;30.50;61.70;;;;;;5048079;28;20083;-58
2022/05/17 13:21:38;;;;;;;3.45;1.40;;;29.90;64.00;;;;;;5033066;28;20052;-58
2022/05/17 13:24:07;;;;;;;3.33;1.30;;;29.90;64.50;;;;;;5054218;28;20040;-58
2022/05/17 13:26:45;;;;;;;7.65;1.55;;;30.10;62.30;;;;;;5044925;28;20393;-58